sensor_id;sensor_type;location;lat;lon;timestamp;pressure;altitude;pressure_sealevel;temperature;humidity
50356;BME280;36264;51.296;-0.602;2022-12-29T00:02:08;99294.47;;;12.28;100.00
50356;BME280;36264;51.296;-0.602;2022-12-29T00:04:33;99298.53;;;12.32;100.00
50356;BME280;36264;51.296;-0.602;2022-12-29T00:06:59;99290.84;;;12.30;100.00
50356;BME280;36264;51.296;-0.602;2022-12-29T00:09:25;99287.94;;;12.35;100.00
50356;BME280;36264;51.296;-0.602;2022-12-29T00:11:51;99283.41;;;12.24;100.00
50356;BME280;36264;51.296;-0.602;2022-12-29T00:14:16;99290.28;;;12.25;100.00
50356;BME280;36264;51.296;-0.602;2022-12-29T00:17:01;99269.84;;;12.19;100.00
50356;BME280;36264;51.296;-0.602;2022-12-29T00:19:26;99268.56;;;12.12;100.00
50356;BME280;36264;51.296;-0.602;2022-12-29T00:22:12;99266.84;;;12.25;100.00
50356;BME280;36264;51.296;-0.602;2022-12-29T00:24:57;99254.50;;;12.14;100.00
50356;BME280;36264;51.296;-0.602;2022-12-29T00:27:55;99264.16;;;12.12;100.00
50356;BME280;36264;51.296;-0.602;2022-12-29T00:30:39;99245.59;;;12.04;100.00
50356;BME280;36264;51.296;-0.602;2022-12-29T00:33:28;99259.69;;;12.14;100.00
50356;BME280;36264;51.296;-0.602;2022-12-29T00:36:19;99263.06;;;12.17;100.00
50356;BME280;36264;51.296;-0.602;2022-12-29T00:38:57;99261.94;;;12.06;100.00
50356;BME280;36264;51.296;-0.602;2022-12-29T00:41:43;99273.84;;;11.96;100.00
50356;BME280;36264;51.296;-0.602;2022-12-29T00:44:27;99274.28;;;11.88;100.00
50356;BME280;36264;51.296;-0.602;2022-12-29T00:46:52;99264.06;;;11.85;100.00
50356;BME280;36264;51.296;-0.602;2022-12-29T00:49:17;99292.03;;;11.82;100.00
50356;BME280;36264;51.296;-0.602;2022-12-29T00:51:59;99277.69;;;11.89;100.00
50356;BME280;36264;51.296;-0.602;2022-12-29T00:54:24;99265.44;;;11.76;100.00
50356;BME280;36264;51.296;-0.602;2022-12-29T00:56:51;99273.22;;;11.91;100.00
50356;BME280;36264;51.296;-0.602;2022-12-29T00:59:17;99284.44;;;11.93;100.00
50356;BME280;36264;51.296;-0.602;2022-12-29T01:01:43;99268.75;;;11.94;100.00
50356;BME280;36264;51.296;-0.602;2022-12-29T01:04:09;99272.06;;;11.96;100.00
50356;BME280;36264;51.296;-0.602;2022-12-29T01:06:37;99256.81;;;12.05;100.00
50356;BME280;36264;51.296;-0.602;2022-12-29T01:09:03;99252.00;;;11.99;100.00
50356;BME280;36264;51.296;-0.602;2022-12-29T01:11:47;99250.78;;;12.04;100.00
50356;BME280;36264;51.296;-0.602;2022-12-29T01:14:13;99257.88;;;12.02;100.00
50356;BME280;36264;51.296;-0.602;2022-12-29T01:16:39;99253.69;;;12.00;100.00
50356;BME280;36264;51.296;-0.602;2022-12-29T01:19:04;99252.25;;;12.08;100.00
50356;BME280;36264;51.296;-0.602;2022-12-29T01:21:30;99241.78;;;11.95;100.00
50356;BME280;36264;51.296;-0.602;2022-12-29T01:23:55;99261.84;;;12.08;100.00
50356;BME280;36264;51.296;-0.602;2022-12-29T01:26:21;99259.25;;;12.08;100.00
50356;BME280;36264;51.296;-0.602;2022-12-29T01:28:46;99259.63;;;12.02;100.00
50356;BME280;36264;51.296;-0.602;2022-12-29T01:31:14;99247.91;;;12.09;100.00
50356;BME280;36264;51.296;-0.602;2022-12-29T01:33:40;99249.47;;;11.97;100.00
50356;BME280;36264;51.296;-0.602;2022-12-29T01:36:13;99243.34;;;11.98;100.00
50356;BME280;36264;51.296;-0.602;2022-12-29T01:38:39;99235.84;;;11.93;100.00
50356;BME280;36264;51.296;-0.602;2022-12-29T01:41:06;99243.53;;;11.95;100.00
50356;BME280;36264;51.296;-0.602;2022-12-29T01:43:48;99239.75;;;12.01;100.00
50356;BME280;36264;51.296;-0.602;2022-12-29T01:49:04;99231.84;;;12.02;100.00
50356;BME280;36264;51.296;-0.602;2022-12-29T01:51:31;99242.09;;;11.89;100.00
50356;BME280;36264;51.296;-0.602;2022-12-29T01:53:59;99232.94;;;11.84;100.00
50356;BME280;36264;51.296;-0.602;2022-12-29T01:56:25;99235.16;;;11.75;100.00
50356;BME280;36264;51.296;-0.602;2022-12-29T01:58:56;99232.75;;;11.87;100.00
50356;BME280;36264;51.296;-0.602;2022-12-29T02:01:25;99232.91;;;11.69;100.00
50356;BME280;36264;51.296;-0.602;2022-12-29T02:03:50;99231.50;;;11.64;100.00
50356;BME280;36264;51.296;-0.602;2022-12-29T02:08:46;99229.69;;;11.66;100.00
50356;BME280;36264;51.296;-0.602;2022-12-29T02:11:15;99252.88;;;11.69;100.00
50356;BME280;36264;51.296;-0.602;2022-12-29T02:13:41;99243.31;;;11.55;100.00
50356;BME280;36264;51.296;-0.602;2022-12-29T02:16:39;99231.97;;;11.70;100.00
50356;BME280;36264;51.296;-0.602;2022-12-29T02:20:06;99236.63;;;11.65;100.00
50356;BME280;36264;51.296;-0.602;2022-12-29T02:27:51;99229.00;;;11.62;100.00
50356;BME280;36264;51.296;-0.602;2022-12-29T02:35:29;99237.56;;;11.64;100.00
50356;BME280;36264;51.296;-0.602;2022-12-29T02:40:43;99228.44;;;11.71;100.00
50356;BME280;36264;51.296;-0.602;2022-12-29T02:43:28;99232.06;;;11.54;100.00
50356;BME280;36264;51.296;-0.602;2022-12-29T02:48:43;99220.38;;;11.76;100.00
50356;BME280;36264;51.296;-0.602;2022-12-29T02:51:50;99234.03;;;11.79;100.00
50356;BME280;36264;51.296;-0.602;2022-12-29T02:54:18;99234.97;;;11.78;100.00
50356;BME280;36264;51.296;-0.602;2022-12-29T02:57:02;99247.50;;;11.72;100.00
50356;BME280;36264;51.296;-0.602;2022-12-29T02:59:27;99229.69;;;11.80;100.00
50356;BME280;36264;51.296;-0.602;2022-12-29T03:04:54;99236.84;;;12.05;100.00
50356;BME280;36264;51.296;-0.602;2022-12-29T03:13:23;99240.28;;;12.06;100.00
50356;BME280;36264;51.296;-0.602;2022-12-29T03:21:34;99250.31;;;12.26;100.00
50356;BME280;36264;51.296;-0.602;2022-12-29T03:24:24;99236.47;;;12.11;100.00
50356;BME280;36264;51.296;-0.602;2022-12-29T03:26:52;99246.22;;;12.22;100.00
50356;BME280;36264;51.296;-0.602;2022-12-29T03:29:20;99228.28;;;12.18;100.00
50356;BME280;36264;51.296;-0.602;2022-12-29T03:31:48;99257.34;;;12.24;100.00
50356;BME280;36264;51.296;-0.602;2022-12-29T03:34:15;99243.44;;;12.25;100.00
50356;BME280;36264;51.296;-0.602;2022-12-29T03:36:52;99238.22;;;12.25;100.00
50356;BME280;36264;51.296;-0.602;2022-12-29T03:39:22;99244.53;;;12.36;100.00
50356;BME280;36264;51.296;-0.602;2022-12-29T03:41:50;99242.22;;;12.31;100.00
50356;BME280;36264;51.296;-0.602;2022-12-29T03:44:20;99247.63;;;12.13;100.00
50356;BME280;36264;51.296;-0.602;2022-12-29T03:46:46;99242.06;;;12.20;100.00
50356;BME280;36264;51.296;-0.602;2022-12-29T03:49:11;99248.38;;;12.16;100.00
50356;BME280;36264;51.296;-0.602;2022-12-29T03:51:36;99251.63;;;12.19;100.00
50356;BME280;36264;51.296;-0.602;2022-12-29T03:54:02;99246.84;;;12.26;100.00
50356;BME280;36264;51.296;-0.602;2022-12-29T03:56:27;99276.06;;;12.17;100.00
50356;BME280;36264;51.296;-0.602;2022-12-29T03:58:53;99264.53;;;12.21;100.00
50356;BME280;36264;51.296;-0.602;2022-12-29T04:01:18;99265.38;;;12.21;100.00
50356;BME280;36264;51.296;-0.602;2022-12-29T04:03:43;99280.44;;;12.16;100.00
50356;BME280;36264;51.296;-0.602;2022-12-29T04:06:09;99290.75;;;12.18;100.00
50356;BME280;36264;51.296;-0.602;2022-12-29T04:08:34;99284.34;;;12.09;100.00
50356;BME280;36264;51.296;-0.602;2022-12-29T04:10:59;99273.84;;;11.96;100.00
50356;BME280;36264;51.296;-0.602;2022-12-29T04:13:25;99295.28;;;11.85;100.00
50356;BME280;36264;51.296;-0.602;2022-12-29T04:15:50;99272.50;;;11.89;100.00
50356;BME280;36264;51.296;-0.602;2022-12-29T04:18:15;99283.72;;;11.89;100.00
50356;BME280;36264;51.296;-0.602;2022-12-29T04:20:41;99279.25;;;11.93;100.00
50356;BME280;36264;51.296;-0.602;2022-12-29T04:23:25;99284.78;;;11.87;100.00
50356;BME280;36264;51.296;-0.602;2022-12-29T04:25:51;99279.88;;;11.96;100.00
50356;BME280;36264;51.296;-0.602;2022-12-29T04:28:16;99286.59;;;12.01;100.00
50356;BME280;36264;51.296;-0.602;2022-12-29T04:30:43;99290.28;;;12.11;100.00
50356;BME280;36264;51.296;-0.602;2022-12-29T04:33:09;99288.25;;;12.02;100.00
50356;BME280;36264;51.296;-0.602;2022-12-29T04:35:34;99298.38;;;12.06;100.00
50356;BME280;36264;51.296;-0.602;2022-12-29T04:38:00;99294.19;;;12.04;100.00
50356;BME280;36264;51.296;-0.602;2022-12-29T04:40:25;99304.31;;;12.08;100.00
50356;BME280;36264;51.296;-0.602;2022-12-29T04:42:51;99303.56;;;12.06;100.00
50356;BME280;36264;51.296;-0.602;2022-12-29T04:45:16;99320.69;;;12.10;100.00
50356;BME280;36264;51.296;-0.602;2022-12-29T04:47:42;99326.16;;;12.06;100.00
50356;BME280;36264;51.296;-0.602;2022-12-29T04:50:08;99326.09;;;12.07;100.00
50356;BME280;36264;51.296;-0.602;2022-12-29T04:52:34;99321.88;;;12.05;100.00
50356;BME280;36264;51.296;-0.602;2022-12-29T04:54:59;99327.72;;;12.08;100.00
50356;BME280;36264;51.296;-0.602;2022-12-29T04:57:25;99332.28;;;12.05;100.00
50356;BME280;36264;51.296;-0.602;2022-12-29T04:59:50;99331.28;;;12.07;100.00
50356;BME280;36264;51.296;-0.602;2022-12-29T05:02:16;99341.34;;;12.13;100.00
50356;BME280;36264;51.296;-0.602;2022-12-29T05:04:42;99345.41;;;12.03;100.00
50356;BME280;36264;51.296;-0.602;2022-12-29T05:07:07;99346.13;;;12.05;100.00
50356;BME280;36264;51.296;-0.602;2022-12-29T05:09:33;99363.69;;;12.02;100.00
50356;BME280;36264;51.296;-0.602;2022-12-29T05:11:58;99365.47;;;12.01;100.00
50356;BME280;36264;51.296;-0.602;2022-12-29T05:14:24;99361.97;;;12.02;100.00
50356;BME280;36264;51.296;-0.602;2022-12-29T05:16:49;99374.84;;;12.04;100.00
50356;BME280;36264;51.296;-0.602;2022-12-29T05:19:15;99379.41;;;12.00;100.00
50356;BME280;36264;51.296;-0.602;2022-12-29T05:21:42;99397.25;;;11.92;100.00
50356;BME280;36264;51.296;-0.602;2022-12-29T05:24:07;99396.72;;;11.85;100.00
50356;BME280;36264;51.296;-0.602;2022-12-29T05:26:32;99416.72;;;11.85;100.00
50356;BME280;36264;51.296;-0.602;2022-12-29T05:28:58;99425.09;;;11.90;100.00
50356;BME280;36264;51.296;-0.602;2022-12-29T05:31:25;99432.13;;;11.88;100.00
50356;BME280;36264;51.296;-0.602;2022-12-29T05:33:50;99430.63;;;11.84;100.00
50356;BME280;36264;51.296;-0.602;2022-12-29T05:36:15;99454.47;;;11.92;100.00
50356;BME280;36264;51.296;-0.602;2022-12-29T05:38:41;99466.56;;;11.93;100.00
50356;BME280;36264;51.296;-0.602;2022-12-29T05:41:06;99470.56;;;11.83;100.00
50356;BME280;36264;51.296;-0.602;2022-12-29T05:43:32;99469.25;;;11.75;100.00
50356;BME280;36264;51.296;-0.602;2022-12-29T05:45:57;99477.00;;;11.61;100.00
50356;BME280;36264;51.296;-0.602;2022-12-29T05:48:22;99484.00;;;11.75;100.00
50356;BME280;36264;51.296;-0.602;2022-12-29T05:50:49;99504.78;;;11.91;100.00
50356;BME280;36264;51.296;-0.602;2022-12-29T05:53:15;99506.00;;;11.85;100.00
50356;BME280;36264;51.296;-0.602;2022-12-29T05:55:43;99511.47;;;11.96;100.00
50356;BME280;36264;51.296;-0.602;2022-12-29T05:58:08;99508.69;;;11.84;100.00
50356;BME280;36264;51.296;-0.602;2022-12-29T06:00:34;99520.44;;;11.59;100.00
50356;BME280;36264;51.296;-0.602;2022-12-29T06:02:59;99528.41;;;11.56;100.00
50356;BME280;36264;51.296;-0.602;2022-12-29T06:05:25;99543.84;;;11.43;100.00
50356;BME280;36264;51.296;-0.602;2022-12-29T06:07:50;99544.41;;;11.48;100.00
50356;BME280;36264;51.296;-0.602;2022-12-29T06:10:16;99554.63;;;11.35;100.00
50356;BME280;36264;51.296;-0.602;2022-12-29T06:12:41;99560.00;;;11.32;100.00
50356;BME280;36264;51.296;-0.602;2022-12-29T06:15:07;99552.19;;;11.32;100.00
50356;BME280;36264;51.296;-0.602;2022-12-29T06:17:32;99566.88;;;11.33;100.00
50356;BME280;36264;51.296;-0.602;2022-12-29T06:19:58;99570.91;;;11.23;100.00
50356;BME280;36264;51.296;-0.602;2022-12-29T06:22:23;99578.63;;;11.24;100.00
50356;BME280;36264;51.296;-0.602;2022-12-29T06:24:49;99589.50;;;11.15;100.00
50356;BME280;36264;51.296;-0.602;2022-12-29T06:27:14;99590.31;;;11.16;100.00
50356;BME280;36264;51.296;-0.602;2022-12-29T06:29:40;99605.25;;;11.12;100.00
50356;BME280;36264;51.296;-0.602;2022-12-29T06:32:06;99612.09;;;11.13;100.00
50356;BME280;36264;51.296;-0.602;2022-12-29T06:34:32;99609.59;;;11.12;100.00
50356;BME280;36264;51.296;-0.602;2022-12-29T06:36:57;99621.81;;;11.10;100.00
50356;BME280;36264;51.296;-0.602;2022-12-29T06:39:23;99626.13;;;11.11;100.00
50356;BME280;36264;51.296;-0.602;2022-12-29T06:41:51;99628.16;;;11.21;100.00
50356;BME280;36264;51.296;-0.602;2022-12-29T06:44:17;99637.25;;;11.13;100.00
50356;BME280;36264;51.296;-0.602;2022-12-29T06:46:42;99639.78;;;11.14;100.00
50356;BME280;36264;51.296;-0.602;2022-12-29T06:49:07;99641.72;;;11.11;100.00
50356;BME280;36264;51.296;-0.602;2022-12-29T06:51:33;99645.28;;;11.08;100.00
50356;BME280;36264;51.296;-0.602;2022-12-29T06:53:58;99655.91;;;11.03;100.00
50356;BME280;36264;51.296;-0.602;2022-12-29T06:56:23;99642.78;;;10.89;100.00
50356;BME280;36264;51.296;-0.602;2022-12-29T06:58:49;99649.28;;;10.98;100.00
50356;BME280;36264;51.296;-0.602;2022-12-29T07:01:14;99649.13;;;11.01;100.00
50356;BME280;36264;51.296;-0.602;2022-12-29T07:03:41;99666.94;;;11.09;100.00
50356;BME280;36264;51.296;-0.602;2022-12-29T07:06:07;99663.84;;;11.00;100.00
50356;BME280;36264;51.296;-0.602;2022-12-29T07:08:32;99669.22;;;10.97;100.00
50356;BME280;36264;51.296;-0.602;2022-12-29T07:10:57;99674.56;;;10.94;100.00
50356;BME280;36264;51.296;-0.602;2022-12-29T07:13:23;99678.47;;;10.85;100.00
50356;BME280;36264;51.296;-0.602;2022-12-29T07:15:48;99678.47;;;10.85;100.00
50356;BME280;36264;51.296;-0.602;2022-12-29T07:18:13;99688.47;;;10.76;100.00
50356;BME280;36264;51.296;-0.602;2022-12-29T07:20:39;99685.88;;;10.76;100.00
50356;BME280;36264;51.296;-0.602;2022-12-29T07:23:04;99693.81;;;10.73;100.00
50356;BME280;36264;51.296;-0.602;2022-12-29T07:25:30;99700.75;;;10.72;100.00
50356;BME280;36264;51.296;-0.602;2022-12-29T07:27:55;99698.06;;;10.74;100.00
50356;BME280;36264;51.296;-0.602;2022-12-29T07:30:20;99703.44;;;10.71;100.00
50356;BME280;36264;51.296;-0.602;2022-12-29T07:32:46;99698.75;;;10.60;100.00
50356;BME280;36264;51.296;-0.602;2022-12-29T07:35:11;99708.22;;;10.61;100.00
50356;BME280;36264;51.296;-0.602;2022-12-29T07:37:36;99705.59;;;10.61;100.00
50356;BME280;36264;51.296;-0.602;2022-12-29T07:40:02;99700.91;;;10.69;100.00
50356;BME280;36264;51.296;-0.602;2022-12-29T07:42:28;99708.22;;;10.61;100.00
50356;BME280;36264;51.296;-0.602;2022-12-29T07:44:54;99723.16;;;10.56;100.00
50356;BME280;36264;51.296;-0.602;2022-12-29T07:47:19;99719.88;;;10.52;100.00
50356;BME280;36264;51.296;-0.602;2022-12-29T07:49:44;99718.97;;;10.53;100.00
50356;BME280;36264;51.296;-0.602;2022-12-29T07:52:10;99715.31;;;10.57;100.00
50356;BME280;36264;51.296;-0.602;2022-12-29T07:54:35;99723.09;;;10.57;100.00
50356;BME280;36264;51.296;-0.602;2022-12-29T07:57:00;99723.72;;;10.62;100.00
50356;BME280;36264;51.296;-0.602;2022-12-29T07:59:26;99729.78;;;10.63;100.00
50356;BME280;36264;51.296;-0.602;2022-12-29T08:01:51;99739.44;;;10.59;100.00
50356;BME280;36264;51.296;-0.602;2022-12-29T08:04:17;99746.75;;;10.51;100.00
50356;BME280;36264;51.296;-0.602;2022-12-29T08:06:42;99747.81;;;10.47;100.00
50356;BME280;36264;51.296;-0.602;2022-12-29T08:09:08;99746.19;;;10.44;100.00
50356;BME280;36264;51.296;-0.602;2022-12-29T08:11:33;99750.56;;;10.44;100.00
50356;BME280;36264;51.296;-0.602;2022-12-29T08:13:59;99765.22;;;10.45;100.00
50356;BME280;36264;51.296;-0.602;2022-12-29T08:16:24;99765.22;;;10.45;100.00
50356;BME280;36264;51.296;-0.602;2022-12-29T08:18:49;99758.34;;;10.44;100.00
50356;BME280;36264;51.296;-0.602;2022-12-29T08:21:15;99774.97;;;10.40;100.00
50356;BME280;36264;51.296;-0.602;2022-12-29T08:23:40;99775.94;;;10.37;100.00
50356;BME280;36264;51.296;-0.602;2022-12-29T08:26:06;99792.25;;;10.41;100.00
50356;BME280;36264;51.296;-0.602;2022-12-29T08:28:32;99788.44;;;10.48;100.00
50356;BME280;36264;51.296;-0.602;2022-12-29T08:30:59;99781.19;;;10.55;100.00
50356;BME280;36264;51.296;-0.602;2022-12-29T08:33:25;99787.47;;;10.50;100.00
50356;BME280;36264;51.296;-0.602;2022-12-29T08:35:51;99791.97;;;10.47;100.00
50356;BME280;36264;51.296;-0.602;2022-12-29T08:38:16;99793.91;;;10.61;100.00
50356;BME280;36264;51.296;-0.602;2022-12-29T08:40:42;99811.94;;;10.64;100.00
50356;BME280;36264;51.296;-0.602;2022-12-29T08:43:07;99810.97;;;10.66;100.00
50356;BME280;36264;51.296;-0.602;2022-12-29T08:45:33;99812.06;;;10.80;100.00
50356;BME280;36264;51.296;-0.602;2022-12-29T08:47:58;99806.47;;;10.70;100.00
50356;BME280;36264;51.296;-0.602;2022-12-29T08:50:23;99816.00;;;10.69;100.00
50356;BME280;36264;51.296;-0.602;2022-12-29T08:52:49;99815.00;;;10.72;100.00
50356;BME280;36264;51.296;-0.602;2022-12-29T08:55:14;99819.84;;;10.80;100.00
50356;BME280;36264;51.296;-0.602;2022-12-29T08:57:40;99827.72;;;10.78;100.00
50356;BME280;36264;51.296;-0.602;2022-12-29T09:00:06;99835.44;;;10.80;100.00
50356;BME280;36264;51.296;-0.602;2022-12-29T09:02:32;99835.88;;;10.71;100.00
50356;BME280;36264;51.296;-0.602;2022-12-29T09:04:57;99829.22;;;10.65;100.00
50356;BME280;36264;51.296;-0.602;2022-12-29T09:07:24;99847.94;;;10.72;100.00
50356;BME280;36264;51.296;-0.602;2022-12-29T09:09:50;99844.16;;;10.79;100.00
50356;BME280;36264;51.296;-0.602;2022-12-29T09:12:16;99854.34;;;10.83;100.00
50356;BME280;36264;51.296;-0.602;2022-12-29T09:14:42;99846.75;;;10.79;100.00
50356;BME280;36264;51.296;-0.602;2022-12-29T09:17:09;99858.25;;;10.73;100.00
50356;BME280;36264;51.296;-0.602;2022-12-29T09:19:53;99867.88;;;10.71;100.00
50356;BME280;36264;51.296;-0.602;2022-12-29T09:22:19;99867.25;;;10.66;100.00
50356;BME280;36264;51.296;-0.602;2022-12-29T09:24:44;99863.94;;;10.81;100.00
50356;BME280;36264;51.296;-0.602;2022-12-29T09:27:09;99871.44;;;10.87;100.00
50356;BME280;36264;51.296;-0.602;2022-12-29T09:29:35;99870.75;;;10.84;100.00
50356;BME280;36264;51.296;-0.602;2022-12-29T09:32:00;99870.91;;;10.81;100.00
50356;BME280;36264;51.296;-0.602;2022-12-29T09:34:25;99881.00;;;10.87;100.00
50356;BME280;36264;51.296;-0.602;2022-12-29T09:36:51;99896.47;;;10.71;100.00
50356;BME280;36264;51.296;-0.602;2022-12-29T09:39:16;99893.94;;;10.69;100.00
50356;BME280;36264;51.296;-0.602;2022-12-29T09:41:49;99898.38;;;10.86;100.00
50356;BME280;36264;51.296;-0.602;2022-12-29T09:47:09;99905.72;;;10.96;100.00
50356;BME280;36264;51.296;-0.602;2022-12-29T09:49:49;99921.22;;;10.97;100.00
50356;BME280;36264;51.296;-0.602;2022-12-29T09:52:26;99908.97;;;11.01;100.00
50356;BME280;36264;51.296;-0.602;2022-12-29T09:55:17;99926.56;;;10.94;100.00
50356;BME280;36264;51.296;-0.602;2022-12-29T09:57:59;99928.13;;;10.98;100.00
50356;BME280;36264;51.296;-0.602;2022-12-29T10:00:37;99926.00;;;11.06;100.00
50356;BME280;36264;51.296;-0.602;2022-12-29T10:03:13;99950.25;;;11.07;100.00
50356;BME280;36264;51.296;-0.602;2022-12-29T10:05:50;99935.44;;;11.09;100.00
50356;BME280;36264;51.296;-0.602;2022-12-29T10:08:42;99955.09;;;11.15;100.00
50356;BME280;36264;51.296;-0.602;2022-12-29T10:14:17;99946.38;;;11.16;100.00
50356;BME280;36264;51.296;-0.602;2022-12-29T10:19:52;99952.69;;;10.91;100.00
50356;BME280;36264;51.296;-0.602;2022-12-29T10:25:12;99971.19;;;11.04;100.00
50356;BME280;36264;51.296;-0.602;2022-12-29T10:27:40;99963.81;;;10.95;100.00
50356;BME280;36264;51.296;-0.602;2022-12-29T10:30:11;99972.22;;;11.00;100.00
50356;BME280;36264;51.296;-0.602;2022-12-29T10:32:54;99964.66;;;11.14;100.00
50356;BME280;36264;51.296;-0.602;2022-12-29T10:35:23;99970.88;;;11.10;100.00
50356;BME280;36264;51.296;-0.602;2022-12-29T10:37:57;99978.78;;;11.09;100.00
50356;BME280;36264;51.296;-0.602;2022-12-29T10:42:54;99980.59;;;11.06;100.00
50356;BME280;36264;51.296;-0.602;2022-12-29T10:45:23;99982.56;;;11.01;100.00
50356;BME280;36264;51.296;-0.602;2022-12-29T10:48:19;99983.88;;;11.10;100.00
50356;BME280;36264;51.296;-0.602;2022-12-29T10:50:45;99994.91;;;10.96;100.00
50356;BME280;36264;51.296;-0.602;2022-12-29T10:53:21;100003.56;;;11.16;100.00
50356;BME280;36264;51.296;-0.602;2022-12-29T10:55:48;100002.38;;;11.04;100.00
50356;BME280;36264;51.296;-0.602;2022-12-29T10:58:15;100011.00;;;11.04;100.00
50356;BME280;36264;51.296;-0.602;2022-12-29T11:00:42;100009.78;;;11.12;100.00
50356;BME280;36264;51.296;-0.602;2022-12-29T11:05:50;100004.97;;;11.23;100.00
50356;BME280;36264;51.296;-0.602;2022-12-29T11:08:19;100009.72;;;11.13;100.00
50356;BME280;36264;51.296;-0.602;2022-12-29T11:11:03;100012.19;;;11.16;100.00
50356;BME280;36264;51.296;-0.602;2022-12-29T11:13:35;100019.34;;;11.11;100.00
50356;BME280;36264;51.296;-0.602;2022-12-29T11:16:11;100016.41;;;11.00;100.00
50356;BME280;36264;51.296;-0.602;2022-12-29T11:18:38;100026.72;;;11.01;100.00
50356;BME280;36264;51.296;-0.602;2022-12-29T11:21:34;100026.19;;;11.14;100.00
50356;BME280;36264;51.296;-0.602;2022-12-29T11:24:22;100026.25;;;11.12;100.00
50356;BME280;36264;51.296;-0.602;2022-12-29T11:26:50;100032.56;;;11.06;100.00
50356;BME280;36264;51.296;-0.602;2022-12-29T11:31:52;100035.19;;;11.26;100.00
50356;BME280;36264;51.296;-0.602;2022-12-29T11:34:23;100028.22;;;11.07;100.00
50356;BME280;36264;51.296;-0.602;2022-12-29T11:36:50;100032.78;;;11.21;100.00
50356;BME280;36264;51.296;-0.602;2022-12-29T11:39:30;100037.34;;;11.16;100.00
50356;BME280;36264;51.296;-0.602;2022-12-29T11:41:57;100034.31;;;11.06;100.00
50356;BME280;36264;51.296;-0.602;2022-12-29T11:44:24;100039.44;;;11.08;100.00
50356;BME280;36264;51.296;-0.602;2022-12-29T11:46:51;100047.88;;;11.13;100.00
50356;BME280;36264;51.296;-0.602;2022-12-29T11:49:22;100043.25;;;11.19;100.00
50356;BME280;36264;51.296;-0.602;2022-12-29T11:51:51;100054.91;;;11.11;100.00
50356;BME280;36264;51.296;-0.602;2022-12-29T11:54:21;100055.94;;;11.06;100.00
50356;BME280;36264;51.296;-0.602;2022-12-29T11:56:49;100061.16;;;11.06;100.00
50356;BME280;36264;51.296;-0.602;2022-12-29T12:01:49;100057.31;;;11.15;100.00
50356;BME280;36264;51.296;-0.602;2022-12-29T12:04:18;100070.59;;;11.28;100.00
50356;BME280;36264;51.296;-0.602;2022-12-29T12:06:52;100054.59;;;11.37;100.00
50356;BME280;36264;51.296;-0.602;2022-12-29T12:09:29;100064.84;;;11.40;100.00
50356;BME280;36264;51.296;-0.602;2022-12-29T12:11:57;100067.19;;;11.47;100.00
50356;BME280;36264;51.296;-0.602;2022-12-29T12:17:09;100069.84;;;11.64;100.00
50356;BME280;36264;51.296;-0.602;2022-12-29T12:22:37;100065.22;;;11.52;100.00
50356;BME280;36264;51.296;-0.602;2022-12-29T12:25:12;100052.81;;;11.38;100.00
50356;BME280;36264;51.296;-0.602;2022-12-29T12:27:48;100064.00;;;11.40;100.00
50356;BME280;36264;51.296;-0.602;2022-12-29T12:30:20;100070.09;;;11.20;100.00
50356;BME280;36264;51.296;-0.602;2022-12-29T12:33:11;100064.84;;;11.40;100.00
50356;BME280;36264;51.296;-0.602;2022-12-29T12:38:59;100068.00;;;11.47;100.00
50356;BME280;36264;51.296;-0.602;2022-12-29T12:50:32;100064.41;;;11.69;100.00
50356;BME280;36264;51.296;-0.602;2022-12-29T12:59:10;100087.63;;;11.92;100.00
50356;BME280;36264;51.296;-0.602;2022-12-29T13:12:32;100064.72;;;12.01;96.23
50356;BME280;36264;51.296;-0.602;2022-12-29T13:20:30;100071.28;;;12.08;93.82
50356;BME280;36264;51.296;-0.602;2022-12-29T13:36:44;100075.16;;;12.18;96.60
50356;BME280;36264;51.296;-0.602;2022-12-29T13:39:32;100079.19;;;12.24;96.63
50356;BME280;36264;51.296;-0.602;2022-12-29T13:41:59;100082.75;;;12.04;97.05
50356;BME280;36264;51.296;-0.602;2022-12-29T13:47:02;100087.34;;;11.99;96.80
50356;BME280;36264;51.296;-0.602;2022-12-29T13:49:32;100087.72;;;11.89;97.10
50356;BME280;36264;51.296;-0.602;2022-12-29T13:52:27;100100.25;;;11.81;94.17
50356;BME280;36264;51.296;-0.602;2022-12-29T13:58:23;100095.00;;;11.83;93.46
50356;BME280;36264;51.296;-0.602;2022-12-29T14:01:34;100096.41;;;11.90;95.03
50356;BME280;36264;51.296;-0.602;2022-12-29T14:04:13;100102.59;;;11.87;96.24
50356;BME280;36264;51.296;-0.602;2022-12-29T14:06:39;100097.88;;;11.76;98.15
50356;BME280;36264;51.296;-0.602;2022-12-29T14:09:27;100098.59;;;11.80;97.48
50356;BME280;36264;51.296;-0.602;2022-12-29T14:11:52;100100.19;;;11.64;94.95
50356;BME280;36264;51.296;-0.602;2022-12-29T14:14:23;100099.28;;;11.65;94.24
50356;BME280;36264;51.296;-0.602;2022-12-29T14:16:51;100114.34;;;11.58;94.67
50356;BME280;36264;51.296;-0.602;2022-12-29T14:19:21;100114.13;;;11.63;94.85
50356;BME280;36264;51.296;-0.602;2022-12-29T14:22:07;100114.47;;;11.55;91.46
50356;BME280;36264;51.296;-0.602;2022-12-29T14:27:01;100115.66;;;11.48;93.80
50356;BME280;36264;51.296;-0.602;2022-12-29T14:31:54;100121.00;;;11.45;94.32
50356;BME280;36264;51.296;-0.602;2022-12-29T14:39:30;100110.59;;;11.64;91.03
50356;BME280;36264;51.296;-0.602;2022-12-29T14:44:34;100118.72;;;11.37;93.90
50356;BME280;36264;51.296;-0.602;2022-12-29T14:47:18;100119.81;;;11.52;95.04
50356;BME280;36264;51.296;-0.602;2022-12-29T14:49:45;100111.38;;;11.47;96.30
50356;BME280;36264;51.296;-0.602;2022-12-29T14:52:18;100124.09;;;11.53;96.27
50356;BME280;36264;51.296;-0.602;2022-12-29T14:54:52;100129.72;;;11.44;94.68
50356;BME280;36264;51.296;-0.602;2022-12-29T14:58:12;100127.13;;;11.44;93.20
50356;BME280;36264;51.296;-0.602;2022-12-29T15:00:23;100126.41;;;11.40;93.15
50356;BME280;36264;51.296;-0.602;2022-12-29T15:03:14;100126.19;;;11.45;92.84